Mine Centre, Canada
Current Conditions -  °F | °C
As of 12:51 AM on Monday 24 Nov 2014 (Local Time) from KCDD Reporting Station
Light Snow Light Snow  
Wind Chill: 26°   Ceiling: 300
Heat Index: 32°   Visibility: 2mi
Dew Point: 30°   Wind: 6mph
Humidity: 93%   Direction: 330°NNW
Pressure: 29.33"   Gusts: NA
Location:  48.76°N, 92.64°W
Report Text: KCDD 240651Z AUTO 33005KT 2SM -SN OVC003 00/M01 A2933 RMK AO2
Loading
Personal Weather Stations






























Interactive Weather Map New forecast layout! Learn more

10-Day Weather Forecast

Advertisements
Track Severe Weather on mobile